createdAt,value
2023-02-24T00:04:52.121Z,100667.31
2023-02-24T00:09:54.230Z,100678.78
2023-02-24T00:14:56.467Z,100708.03
2023-02-24T00:19:58.614Z,100688.00
2023-02-24T00:25:02.915Z,100689.28
2023-02-24T00:30:06.664Z,100665.31
2023-02-24T00:35:09.600Z,100691.59
2023-02-24T00:40:12.428Z,100690.09
2023-02-24T00:45:17.055Z,100690.56
2023-02-24T00:50:19.270Z,100661.13
2023-02-24T00:55:23.611Z,100655.56
2023-02-24T01:00:26.095Z,100657.41
2023-02-24T01:05:28.764Z,100627.25
2023-02-24T01:10:30.983Z,100668.88
2023-02-24T01:15:33.052Z,100651.97
2023-02-24T01:20:35.730Z,100640.34
2023-02-24T01:25:39.241Z,100661.38
2023-02-24T01:30:43.331Z,100643.72
2023-02-24T01:35:45.877Z,100672.25
2023-02-24T01:40:56.793Z,100629.25
2023-02-24T01:45:59.081Z,100658.59
2023-02-24T01:51:02.110Z,100660.22
2023-02-24T01:56:05.901Z,100636.38
2023-02-24T02:01:10.466Z,100640.19
2023-02-24T02:06:14.292Z,100661.56
2023-02-24T02:11:23.906Z,100621.09
2023-02-24T02:16:51.785Z,100655.06
2023-02-24T02:22:05.864Z,100658.59
2023-02-24T02:27:29.764Z,100653.00
2023-02-24T02:32:57.588Z,100640.06
2023-02-24T02:38:05.505Z,100579.53
2023-02-24T02:43:32.456Z,100661.28
2023-02-24T02:48:55.983Z,100625.16
2023-02-24T02:54:16.783Z,100654.28
2023-02-24T02:59:23.681Z,100658.03
2023-02-24T03:04:26.912Z,100659.66
2023-02-24T03:09:37.384Z,100645.53
2023-02-24T03:14:46.403Z,100597.47
2023-02-24T03:20:00.435Z,100649.22
2023-02-24T03:25:05.492Z,100653.84
2023-02-24T03:30:21.590Z,100656.81
2023-02-24T03:35:28.151Z,100673.13
2023-02-24T03:40:34.006Z,100667.81
2023-02-24T03:45:38.631Z,100674.50
2023-02-24T03:50:42.594Z,100665.72
2023-02-24T03:56:00.838Z,100671.50
2023-02-24T04:01:15.172Z,100679.91
2023-02-24T04:06:59.958Z,100655.34
2023-02-24T04:12:32.294Z,100682.59
2023-02-24T04:17:42.959Z,100679.91
2023-02-24T04:22:50.026Z,100673.47
2023-02-24T04:27:54.897Z,100644.88
2023-02-24T04:32:57.100Z,100651.34
2023-02-24T04:37:59.658Z,100650.72
2023-02-24T04:43:02.164Z,100655.91
2023-02-24T04:48:04.409Z,100658.19
2023-02-24T04:53:10.329Z,100661.88
2023-02-24T04:58:19.570Z,100663.41
2023-02-24T05:03:28.756Z,100659.00
2023-02-24T05:08:31.555Z,100627.34
2023-02-24T05:13:34.108Z,100644.22
2023-02-24T05:18:37.507Z,100656.88
2023-02-24T05:23:44.727Z,100655.50
2023-02-24T05:28:52.510Z,100638.09
2023-02-24T05:33:58.022Z,100660.28
2023-02-24T05:39:07.010Z,100656.50
2023-02-24T05:44:14.138Z,100667.38
2023-02-24T05:49:24.248Z,100659.50
2023-02-24T05:54:32.123Z,100667.81
2023-02-24T05:59:35.214Z,100653.88
2023-02-24T06:04:51.781Z,100671.00
2023-02-24T06:09:57.645Z,100673.28
2023-02-24T06:15:00.448Z,100686.63
2023-02-24T06:20:05.526Z,100674.09
2023-02-24T06:25:08.716Z,100688.22
2023-02-24T06:30:11.717Z,100675.28
2023-02-24T06:35:13.937Z,100693.81
2023-02-24T06:40:16.482Z,100644.94
2023-02-24T06:45:19.124Z,100707.94
2023-02-24T06:50:22.055Z,100695.22
2023-02-24T06:55:27.391Z,100697.63
2023-02-24T07:00:41.412Z,100711.03
2023-02-24T07:05:54.621Z,100689.44
2023-02-24T07:11:00.157Z,100695.75
2023-02-24T07:16:07.477Z,100693.25
2023-02-24T07:21:12.943Z,100693.25
2023-02-24T07:26:17.784Z,100713.84
2023-02-24T07:31:23.350Z,100695.66
2023-02-24T07:36:30.497Z,100682.59
2023-02-24T07:41:33.118Z,100686.34
2023-02-24T07:46:35.536Z,100682.81
2023-02-24T07:51:37.786Z,100681.53
2023-02-24T07:56:46.378Z,100703.59
2023-02-24T08:01:52.103Z,100694.25
2023-02-24T08:06:58.939Z,100717.09
2023-02-24T08:12:01.698Z,100676.16
2023-02-24T08:17:05.793Z,100696.31
2023-02-24T08:22:25.819Z,100707.97
2023-02-24T08:27:32.939Z,100683.47
2023-02-24T08:32:38.217Z,100703.25
2023-02-24T08:37:41.098Z,100664.56
2023-02-24T08:42:43.213Z,100706.75
2023-02-24T08:47:45.693Z,100679.56
2023-02-24T08:52:47.804Z,100704.06
2023-02-24T08:57:53.672Z,100708.38
2023-02-24T09:02:56.508Z,100699.69
2023-02-24T09:07:58.668Z,100696.06
2023-02-24T09:13:01.572Z,100703.16
2023-02-24T09:18:07.871Z,100706.63
2023-02-24T09:23:20.456Z,100664.69
2023-02-24T09:28:27.907Z,100688.16
2023-02-24T09:33:42.143Z,100694.03
2023-02-24T09:39:02.244Z,100657.22
2023-02-24T09:44:18.658Z,100679.75
2023-02-24T09:49:24.993Z,100674.34
2023-02-24T09:54:35.675Z,100619.94
2023-02-24T10:00:25.211Z,100680.66
2023-02-24T10:05:38.909Z,100674.47
2023-02-24T10:11:01.071Z,100670.44
2023-02-24T10:16:07.402Z,100658.19
2023-02-24T10:21:31.972Z,100657.09
2023-02-24T10:26:59.626Z,100629.41
2023-02-24T10:32:19.123Z,100603.19
2023-02-24T10:37:29.224Z,100629.06
2023-02-24T10:42:34.894Z,100624.66
2023-02-24T10:47:37.070Z,100525.41
2023-02-24T10:52:53.631Z,100596.19
2023-02-24T10:58:16.186Z,100600.78
2023-02-24T11:03:36.668Z,100570.78
2023-02-24T11:08:55.053Z,100559.00
2023-02-24T11:14:22.424Z,100549.94
2023-02-24T11:19:29.786Z,100525.28
2023-02-24T11:24:32.361Z,100538.03
2023-02-24T11:30:01.615Z,100522.56
2023-02-24T11:35:21.393Z,100532.59
2023-02-24T11:40:28.808Z,100507.50
2023-02-24T11:45:40.128Z,100486.28
2023-02-24T11:50:47.241Z,100473.03
2023-02-24T11:55:57.431Z,100463.66
2023-02-24T12:01:10.606Z,100465.44
2023-02-24T12:06:31.044Z,100448.03
2023-02-24T12:11:41.207Z,100441.28
2023-02-24T12:16:48.340Z,100446.69
2023-02-24T12:22:16.099Z,100442.34
2023-02-24T12:27:21.221Z,100434.88
2023-02-24T12:32:43.224Z,100428.06
2023-02-24T12:38:19.071Z,100421.53
2023-02-24T12:43:26.878Z,100412.41
2023-02-24T12:49:01.341Z,100402.34
2023-02-24T12:54:14.446Z,100385.19
2023-02-24T12:59:22.875Z,100378.75
2023-02-24T13:05:04.111Z,100385.13
2023-02-24T13:10:14.933Z,100385.38
2023-02-24T13:15:26.139Z,100377.84
2023-02-24T13:20:34.389Z,100367.66
2023-02-24T13:25:37.905Z,100345.06
2023-02-24T13:30:44.232Z,100356.91
2023-02-24T13:35:49.467Z,100345.00
2023-02-24T13:40:51.941Z,100362.47
2023-02-24T13:45:58.300Z,100348.03
2023-02-24T13:51:32.244Z,100342.00
2023-02-24T13:56:43.244Z,100348.25
2023-02-24T14:01:58.106Z,100342.63
2023-02-24T14:07:04.329Z,100320.25
2023-02-24T14:12:19.700Z,100329.03
2023-02-24T14:17:29.951Z,100334.69
2023-02-24T14:22:32.927Z,100322.56
2023-02-24T14:27:35.649Z,100330.56
2023-02-24T14:32:37.912Z,100316.53
2023-02-24T14:37:40.220Z,100299.09
2023-02-24T14:42:50.122Z,100326.81
2023-02-24T14:47:54.084Z,100332.97
2023-02-24T14:53:10.265Z,100323.09
2023-02-24T14:58:18.109Z,100322.03
2023-02-24T15:03:29.855Z,100333.63
2023-02-24T15:08:43.638Z,100315.69
2023-02-24T15:13:56.380Z,100323.25
2023-02-24T15:19:01.669Z,100323.03
2023-02-24T15:24:13.932Z,100320.81
2023-02-24T15:29:23.218Z,100302.81
2023-02-24T15:34:37.036Z,100306.84
2023-02-24T15:39:43.136Z,100299.94
2023-02-24T15:45:25.784Z,100321.31
2023-02-24T15:50:30.435Z,100325.81
2023-02-24T15:55:33.133Z,100301.31
2023-02-24T16:00:35.492Z,100306.22
2023-02-24T16:05:38.190Z,100321.91
2023-02-24T16:10:41.169Z,100313.84
2023-02-24T16:15:45.889Z,100310.22
2023-02-24T16:20:54.906Z,100318.38
2023-02-24T16:25:59.571Z,100312.59
2023-02-24T16:31:02.874Z,100325.56
2023-02-24T16:36:12.332Z,100320.09
2023-02-24T16:41:14.484Z,100326.41
2023-02-24T16:46:20.424Z,100327.84
2023-02-24T16:51:23.184Z,100318.84
2023-02-24T16:56:25.328Z,100322.75
2023-02-24T17:01:27.522Z,100336.91
2023-02-24T17:06:30.042Z,100351.34
2023-02-24T17:11:33.194Z,100350.50
2023-02-24T17:16:39.788Z,100349.19
2023-02-24T17:21:44.728Z,100362.84
2023-02-24T17:26:47.233Z,100358.75
2023-02-24T17:31:49.517Z,100351.84
2023-02-24T17:36:51.890Z,100372.25
2023-02-24T17:41:54.115Z,100354.66
2023-02-24T17:46:56.396Z,100361.28
2023-02-24T17:51:58.588Z,100390.59
2023-02-24T17:57:00.862Z,100379.25
2023-02-24T18:02:03.598Z,100358.28
2023-02-24T18:07:05.745Z,100358.50
2023-02-24T18:12:07.966Z,100372.63
2023-02-24T18:17:10.115Z,100353.31
2023-02-24T18:22:12.289Z,100375.56
2023-02-24T18:27:14.514Z,100383.56
2023-02-24T18:32:16.904Z,100382.34
2023-02-24T18:37:19.330Z,100375.03
2023-02-24T18:42:21.494Z,100390.19
2023-02-24T18:47:23.654Z,100385.19
2023-02-24T18:52:25.824Z,100390.22
2023-02-24T18:57:28.135Z,100373.00
2023-02-24T19:02:30.568Z,100384.16
2023-02-24T19:07:32.834Z,100388.94
2023-02-24T19:12:34.934Z,100396.69
2023-02-24T19:17:37.110Z,100424.75
2023-02-24T19:22:39.251Z,100412.94
2023-02-24T19:27:41.447Z,100403.63
2023-02-24T19:32:43.738Z,100434.81
2023-02-24T19:37:49.281Z,100407.66
2023-02-24T19:42:53.385Z,100410.22
2023-02-24T19:47:55.465Z,100430.09
2023-02-24T19:52:57.633Z,100415.56
2023-02-24T19:58:00.150Z,100417.25
2023-02-24T20:03:02.244Z,100406.34
2023-02-24T20:08:04.534Z,100415.47
2023-02-24T20:13:07.275Z,100415.97
2023-02-24T20:18:09.380Z,100421.16
2023-02-24T20:23:11.529Z,100423.63
2023-02-24T20:28:13.744Z,100436.72
2023-02-24T20:33:16.688Z,100425.31
2023-02-24T20:38:18.855Z,100405.22
2023-02-24T20:43:21.379Z,100421.19
2023-02-24T20:48:23.735Z,100408.13
2023-02-24T20:53:25.862Z,100405.44
2023-02-24T20:58:28.024Z,100402.34
2023-02-24T21:03:30.127Z,100390.13
2023-02-24T21:08:32.264Z,100399.00
2023-02-24T21:13:43.159Z,100393.63
2023-02-24T21:18:47.117Z,100394.84
2023-02-24T21:23:50.788Z,100413.75
2023-02-24T21:28:58.020Z,100401.88
2023-02-24T21:34:00.236Z,100388.63
2023-02-24T21:39:02.448Z,100399.19
2023-02-24T21:44:05.371Z,100387.81
2023-02-24T21:49:08.244Z,100402.09
2023-02-24T21:54:12.740Z,100387.53
2023-02-24T21:59:14.966Z,100390.69
2023-02-24T22:04:19.243Z,100391.28
2023-02-24T22:09:21.485Z,100382.16
2023-02-24T22:14:23.675Z,100400.09
2023-02-24T22:19:25.774Z,100389.41
2023-02-24T22:24:27.913Z,100385.69
2023-02-24T22:29:30.109Z,100380.72
2023-02-24T22:34:32.270Z,100380.25
2023-02-24T22:39:34.764Z,100399.25
2023-02-24T22:44:38.209Z,100401.47
2023-02-24T22:49:40.302Z,100372.31
2023-02-24T22:54:43.004Z,100373.75
2023-02-24T22:59:45.632Z,100383.91
2023-02-24T23:04:47.811Z,100378.69
2023-02-24T23:09:53.259Z,100384.06
2023-02-24T23:14:55.465Z,100367.31
2023-02-24T23:19:59.015Z,100357.44
2023-02-24T23:25:01.644Z,100364.00
2023-02-24T23:30:04.407Z,100367.56
2023-02-24T23:35:07.082Z,100360.47
2023-02-24T23:40:11.294Z,100373.31
2023-02-24T23:45:13.425Z,100371.22
2023-02-24T23:50:15.578Z,100373.75
2023-02-24T23:55:17.853Z,100370.19
